createdAt,value
2017-07-17T00:01:50.671Z,10.65
2017-07-17T00:04:18.821Z,12.75
2017-07-17T00:06:47.029Z,13.75
2017-07-17T00:09:15.197Z,11.65
2017-07-17T00:11:43.375Z,11.80
2017-07-17T00:14:11.601Z,12.55
2017-07-17T00:16:39.773Z,11.00
2017-07-17T00:19:07.950Z,12.63
2017-07-17T00:21:36.129Z,13.73
2017-07-17T00:24:04.282Z,18.55
2017-07-17T00:26:32.454Z,8.88
2017-07-17T00:29:00.647Z,10.07
2017-07-17T00:31:28.829Z,12.73
2017-07-17T00:33:57.000Z,11.73
2017-07-17T00:36:25.206Z,13.13
2017-07-17T00:38:53.814Z,15.45
2017-07-17T00:41:21.966Z,14.73
2017-07-17T00:43:50.160Z,16.00
2017-07-17T00:46:18.329Z,13.07
2017-07-17T00:48:46.505Z,15.18
2017-07-17T00:51:14.725Z,11.20
2017-07-17T00:53:42.902Z,17.60
2017-07-17T00:56:11.067Z,9.68
2017-07-17T00:58:39.294Z,11.85
2017-07-17T01:01:07.466Z,8.98
2017-07-17T01:03:35.615Z,12.75
2017-07-17T01:06:03.798Z,13.60
2017-07-17T01:08:31.976Z,11.98
2017-07-17T01:11:00.153Z,7.70
2017-07-17T01:13:28.352Z,8.30
2017-07-17T01:15:56.529Z,17.45
2017-07-17T01:18:24.710Z,15.30
2017-07-17T01:20:52.915Z,8.82
2017-07-17T01:23:21.067Z,10.60
2017-07-17T01:25:50.017Z,12.75
2017-07-17T01:28:18.212Z,8.80
2017-07-17T01:30:46.381Z,10.82
2017-07-17T01:33:14.540Z,12.13
2017-07-17T01:35:42.737Z,9.13
2017-07-17T01:38:10.891Z,12.80
2017-07-17T01:40:39.038Z,8.30
2017-07-17T01:43:07.253Z,10.52
2017-07-17T01:45:35.413Z,15.05
2017-07-17T01:48:03.561Z,8.82
2017-07-17T01:50:31.773Z,10.15
2017-07-17T01:52:59.934Z,14.30
2017-07-17T01:55:28.121Z,15.82
2017-07-17T01:57:56.321Z,8.73
2017-07-17T02:00:25.250Z,10.13
2017-07-17T02:02:53.407Z,9.18
2017-07-17T02:05:21.587Z,11.82
2017-07-17T02:07:49.750Z,10.65
2017-07-17T02:10:17.928Z,10.65
2017-07-17T02:12:46.109Z,12.07
2017-07-17T02:15:14.266Z,15.63
2017-07-17T02:17:43.189Z,11.10
2017-07-17T02:20:11.388Z,9.55
2017-07-17T02:22:39.537Z,12.25
2017-07-17T02:25:07.681Z,8.27
2017-07-17T02:27:36.635Z,11.98
2017-07-17T02:30:04.798Z,8.90
2017-07-17T02:32:32.970Z,16.25
2017-07-17T02:35:01.164Z,10.43
2017-07-17T02:37:29.348Z,11.57
2017-07-17T02:39:57.525Z,10.90
2017-07-17T02:42:25.716Z,9.52
2017-07-17T02:44:54.642Z,12.20
2017-07-17T02:47:22.814Z,9.35
2017-07-17T02:49:51.029Z,11.77
2017-07-17T02:52:19.180Z,8.95
2017-07-17T02:54:47.356Z,14.50
2017-07-17T02:57:15.558Z,12.20
2017-07-17T02:59:43.706Z,11.30
2017-07-17T03:02:11.880Z,9.63
2017-07-17T03:04:40.068Z,10.68
2017-07-17T03:07:08.215Z,9.88
2017-07-17T03:09:36.380Z,10.10
2017-07-17T03:14:32.331Z,15.60
2017-07-17T03:36:45.093Z,14.55
2017-07-17T03:39:13.284Z,11.20
2017-07-17T03:41:41.482Z,13.70
2017-07-17T04:03:56.270Z,16.67
2017-07-17T04:06:24.466Z,10.43
2017-07-17T04:08:52.627Z,11.75
2017-07-17T04:11:21.579Z,10.40
2017-07-17T04:13:49.746Z,11.80
2017-07-17T04:16:17.922Z,15.02
2017-07-17T04:18:46.562Z,10.13
2017-07-17T04:21:14.757Z,13.20
2017-07-17T04:23:43.689Z,11.50
2017-07-17T04:26:11.947Z,12.02
2017-07-17T04:28:40.112Z,12.90
2017-07-17T04:31:08.308Z,13.52
2017-07-17T04:33:36.515Z,13.90
2017-07-17T04:36:04.670Z,11.65
2017-07-17T04:38:32.826Z,13.88
2017-07-17T04:41:01.038Z,11.43
2017-07-17T04:43:29.213Z,13.07
2017-07-17T04:45:57.401Z,12.05
2017-07-17T04:48:25.583Z,10.68
2017-07-17T04:50:53.757Z,12.35
2017-07-17T04:53:21.933Z,14.93
2017-07-17T04:55:50.133Z,12.45
2017-07-17T04:58:19.059Z,11.48
2017-07-17T05:00:47.234Z,15.52
2017-07-17T05:03:15.422Z,14.15
2017-07-17T05:05:44.126Z,16.17
2017-07-17T05:08:12.313Z,15.90
2017-07-17T05:10:40.529Z,15.70
2017-07-17T05:13:08.701Z,12.37
2017-07-17T05:15:36.863Z,16.02
2017-07-17T05:18:05.047Z,14.15
2017-07-17T05:20:33.225Z,14.90
2017-07-17T05:23:01.390Z,18.60
2017-07-17T05:25:30.334Z,11.60
2017-07-17T05:27:58.506Z,10.90
2017-07-17T05:30:26.694Z,10.57
2017-07-17T05:32:54.934Z,11.73
2017-07-17T05:35:23.122Z,9.27
2017-07-17T05:37:51.293Z,10.68
2017-07-17T05:40:19.509Z,15.13
2017-07-17T05:42:48.434Z,11.05
2017-07-17T05:45:16.608Z,11.23
2017-07-17T05:47:44.807Z,10.82
2017-07-17T05:50:12.985Z,12.13
2017-07-17T05:52:41.153Z,12.52
2017-07-17T05:55:09.352Z,16.23
2017-07-17T05:57:37.502Z,8.55
2017-07-17T06:00:05.673Z,12.10
2017-07-17T06:02:34.758Z,9.00
2017-07-17T06:05:02.921Z,10.38
2017-07-17T06:07:31.071Z,10.45
2017-07-17T06:09:59.265Z,8.57
2017-07-17T06:12:28.178Z,10.43
2017-07-17T06:14:56.365Z,8.07
2017-07-17T06:17:24.549Z,11.35
2017-07-17T06:19:52.704Z,8.77
2017-07-17T06:22:20.846Z,8.65
2017-07-17T06:24:49.816Z,7.00
2017-07-17T06:27:17.974Z,6.45
2017-07-17T06:29:46.130Z,9.93
2017-07-17T06:32:14.304Z,4.65
2017-07-17T06:34:42.475Z,10.13
2017-07-17T06:37:10.645Z,5.53
2017-07-17T06:39:38.829Z,10.52
2017-07-17T06:42:06.987Z,7.85
2017-07-17T06:44:35.158Z,7.60
2017-07-17T06:47:03.342Z,5.15
2017-07-17T06:49:31.504Z,6.50
2017-07-17T06:51:59.682Z,9.88
2017-07-17T06:54:27.870Z,5.20
2017-07-17T06:56:56.041Z,5.25
2017-07-17T06:59:24.183Z,4.68
2017-07-17T07:01:53.149Z,8.32
2017-07-17T07:04:21.307Z,7.95
2017-07-17T07:06:49.778Z,5.07
2017-07-17T07:09:17.982Z,5.90
2017-07-17T07:11:46.138Z,8.80
2017-07-17T07:14:14.287Z,10.75
2017-07-17T07:16:42.484Z,4.40
2017-07-17T07:19:10.630Z,7.78
2017-07-17T07:21:38.775Z,6.10
2017-07-17T07:24:07.751Z,5.75
2017-07-17T07:26:35.899Z,7.30
2017-07-17T07:29:04.071Z,4.53
2017-07-17T07:31:32.262Z,10.57
2017-07-17T07:34:00.430Z,7.22
2017-07-17T07:36:28.622Z,12.70
2017-07-17T07:38:56.819Z,6.43
2017-07-17T07:41:25.750Z,7.12
2017-07-17T07:43:53.900Z,7.20
2017-07-17T07:46:22.093Z,3.60
2017-07-17T07:48:50.238Z,7.60
2017-07-17T07:51:18.421Z,3.85
2017-07-17T07:53:47.377Z,4.05
2017-07-17T07:56:15.547Z,3.97
2017-07-17T07:58:43.700Z,4.18
2017-07-17T08:01:11.901Z,4.47
2017-07-17T08:03:40.075Z,3.05
2017-07-17T08:06:08.249Z,4.45
2017-07-17T08:08:36.448Z,3.85
2017-07-17T08:11:05.402Z,4.57
2017-07-17T08:13:33.558Z,4.37
2017-07-17T08:16:01.768Z,4.80
2017-07-17T08:18:29.937Z,7.77
2017-07-17T08:20:58.099Z,3.73
2017-07-17T08:23:26.288Z,5.80
2017-07-17T08:25:54.438Z,5.00
2017-07-17T08:28:22.587Z,6.40
2017-07-17T08:30:50.787Z,8.63
2017-07-17T08:33:18.966Z,7.43
2017-07-17T08:35:47.146Z,6.90
2017-07-17T08:38:15.338Z,4.83
2017-07-17T08:40:43.488Z,2.40
2017-07-17T08:43:11.670Z,4.87
2017-07-17T08:45:39.885Z,3.20
2017-07-17T08:48:08.058Z,7.70
2017-07-17T08:50:36.225Z,6.17
2017-07-17T08:53:04.429Z,3.30
2017-07-17T08:55:32.605Z,5.33
2017-07-17T08:58:00.758Z,11.10
2017-07-17T09:00:28.954Z,7.50
2017-07-17T09:02:57.125Z,4.40
2017-07-17T09:05:25.275Z,3.60
2017-07-17T09:07:53.473Z,3.60
2017-07-17T09:10:21.649Z,2.03
2017-07-17T09:12:49.799Z,9.17
2017-07-17T09:15:17.987Z,3.73
2017-07-17T09:17:46.143Z,4.00
2017-07-17T09:20:14.317Z,2.67
2017-07-17T09:22:42.517Z,4.00
2017-07-17T09:25:10.663Z,4.37
2017-07-17T09:27:38.830Z,4.03
2017-07-17T09:30:07.002Z,4.23
2017-07-17T09:32:35.146Z,4.13
2017-07-17T09:35:03.314Z,2.73
2017-07-17T09:37:31.506Z,5.30
2017-07-17T09:39:59.677Z,6.13
2017-07-17T09:42:27.877Z,4.47
2017-07-17T09:44:56.084Z,4.63
2017-07-17T09:47:24.259Z,4.80
2017-07-17T09:49:52.416Z,5.43
2017-07-17T09:52:20.619Z,4.70
2017-07-17T09:54:48.796Z,4.23
2017-07-17T09:57:17.720Z,5.70
2017-07-17T09:59:45.947Z,3.37
2017-07-17T10:02:14.107Z,3.93
2017-07-17T10:04:42.278Z,3.20
2017-07-17T10:07:10.461Z,2.57
2017-07-17T10:09:38.635Z,2.03
2017-07-17T10:14:50.155Z,4.17
2017-07-17T10:17:18.330Z,4.90
2017-07-17T10:19:46.487Z,2.83
2017-07-17T10:22:14.665Z,6.80
2017-07-17T10:24:42.826Z,4.97
2017-07-17T10:27:10.999Z,2.80
2017-07-17T10:29:39.205Z,2.57
2017-07-17T10:32:07.369Z,3.77
2017-07-17T10:34:35.518Z,4.50
2017-07-17T10:37:03.725Z,3.60
2017-07-17T10:39:31.888Z,4.83
2017-07-17T10:42:00.038Z,3.00
2017-07-17T10:44:28.254Z,2.23
2017-07-17T10:46:56.425Z,3.37
2017-07-17T10:49:24.583Z,3.60
2017-07-17T10:51:52.755Z,2.40
2017-07-17T10:54:20.921Z,2.90
2017-07-17T10:56:49.113Z,2.93
2017-07-17T10:59:17.311Z,3.40
2017-07-17T11:01:46.254Z,2.67
2017-07-17T11:04:14.461Z,2.73
2017-07-17T11:06:42.677Z,6.20
2017-07-17T11:09:10.839Z,2.90
2017-07-17T11:11:39.759Z,2.60
2017-07-17T11:14:08.380Z,2.60
2017-07-17T11:16:36.544Z,2.73
2017-07-17T11:19:04.708Z,2.97
2017-07-17T11:21:32.891Z,2.67
2017-07-17T11:24:01.070Z,3.60
2017-07-17T11:26:29.258Z,2.30
2017-07-17T11:28:57.428Z,2.83
2017-07-17T11:31:25.594Z,1.60
2017-07-17T11:33:53.777Z,4.90
2017-07-17T11:36:21.982Z,3.53
2017-07-17T11:38:50.902Z,2.10
2017-07-17T11:41:19.666Z,2.80
2017-07-17T11:43:47.884Z,4.63
2017-07-17T11:56:30.575Z,3.50
2017-07-17T11:58:58.793Z,2.73
2017-07-17T12:01:26.959Z,6.87
2017-07-17T12:03:55.206Z,4.80
2017-07-17T12:06:23.391Z,4.73
2017-07-17T12:08:51.544Z,3.03
2017-07-17T12:11:19.718Z,5.60
2017-07-17T12:13:47.917Z,3.30
2017-07-17T12:16:16.090Z,5.43
2017-07-17T12:18:44.257Z,3.03
2017-07-17T12:21:12.434Z,2.87
2017-07-17T12:23:40.613Z,2.70
2017-07-17T12:26:08.794Z,3.80
2017-07-17T12:28:36.998Z,7.00
2017-07-17T12:31:05.938Z,8.97
2017-07-17T12:33:34.094Z,6.83
2017-07-17T12:36:02.275Z,2.00
2017-07-17T12:38:30.426Z,2.40
2017-07-17T12:40:58.586Z,2.23
2017-07-17T12:43:27.572Z,3.63
2017-07-17T12:45:55.726Z,4.80
2017-07-17T12:48:23.889Z,4.33
2017-07-17T12:50:52.073Z,3.20
2017-07-17T12:53:20.238Z,2.50
2017-07-17T12:55:48.423Z,4.65
2017-07-17T12:58:16.613Z,2.37
2017-07-17T13:00:44.775Z,3.53
2017-07-17T13:03:12.957Z,2.58
2017-07-17T13:05:41.139Z,1.80
2017-07-17T13:08:10.088Z,4.87
2017-07-17T13:10:38.265Z,2.85
2017-07-17T13:13:06.456Z,2.37
2017-07-17T13:15:34.629Z,4.15
2017-07-17T13:18:02.840Z,4.50
2017-07-17T13:20:31.053Z,4.32
2017-07-17T13:22:59.229Z,3.45
2017-07-17T13:25:27.421Z,2.92
2017-07-17T13:27:55.622Z,2.28
2017-07-17T13:30:23.805Z,2.10
2017-07-17T13:32:51.976Z,2.78
2017-07-17T13:35:20.184Z,2.85
2017-07-17T13:37:48.366Z,2.15
2017-07-17T13:40:16.538Z,3.12
2017-07-17T13:42:44.724Z,2.83
2017-07-17T13:45:12.895Z,2.22
2017-07-17T13:47:41.079Z,2.65
2017-07-17T13:50:09.250Z,3.70
2017-07-17T13:52:37.463Z,3.97
2017-07-17T13:55:05.624Z,2.62
2017-07-17T13:57:33.825Z,2.42
2017-07-17T14:00:02.796Z,3.45
2017-07-17T14:02:30.946Z,4.10
2017-07-17T14:04:59.156Z,3.22
2017-07-17T14:07:27.330Z,4.85
2017-07-17T14:09:55.498Z,3.50
2017-07-17T14:12:23.684Z,2.67
2017-07-17T14:14:51.842Z,3.67
2017-07-17T14:17:20.010Z,4.80
2017-07-17T14:19:48.201Z,3.65
2017-07-17T14:22:16.360Z,2.20
2017-07-17T14:24:44.518Z,3.08
2017-07-17T14:27:12.705Z,3.45
2017-07-17T14:29:40.882Z,2.75
2017-07-17T14:32:09.042Z,4.40
2017-07-17T14:34:37.249Z,3.67
2017-07-17T14:37:05.402Z,6.22
2017-07-17T14:39:33.596Z,3.45
2017-07-17T14:42:01.789Z,2.90
2017-07-17T14:44:29.948Z,3.15
2017-07-17T14:46:58.115Z,4.87
2017-07-17T14:49:26.317Z,4.82
2017-07-17T14:51:54.466Z,2.12
2017-07-17T14:54:22.635Z,3.15
2017-07-17T14:56:50.837Z,4.85
2017-07-17T14:59:19.009Z,6.03
2017-07-17T15:01:47.163Z,3.65
2017-07-17T15:04:15.375Z,3.87
2017-07-17T15:06:44.301Z,3.15
2017-07-17T15:09:12.467Z,2.72
2017-07-17T15:11:40.671Z,6.07
2017-07-17T15:14:08.818Z,11.93
2017-07-17T15:16:36.970Z,4.03
2017-07-17T15:19:05.939Z,3.03
2017-07-17T15:21:34.115Z,2.85
2017-07-17T15:24:02.277Z,4.07
2017-07-17T15:26:30.459Z,2.62
2017-07-17T15:28:58.636Z,3.47
2017-07-17T15:31:26.802Z,3.45
2017-07-17T15:33:55.017Z,4.00
2017-07-17T15:36:23.945Z,6.20
2017-07-17T15:38:52.131Z,2.65
2017-07-17T15:41:20.335Z,5.40
2017-07-17T15:43:48.489Z,3.15
2017-07-17T15:46:16.671Z,8.43
2017-07-17T15:48:44.873Z,2.40
2017-07-17T15:51:13.809Z,3.78
2017-07-17T15:53:41.984Z,4.22
2017-07-17T15:56:10.182Z,2.67
2017-07-17T15:58:38.339Z,4.07
2017-07-17T16:01:06.485Z,5.85
2017-07-17T16:03:34.692Z,4.37
2017-07-17T16:06:02.847Z,3.37
2017-07-17T16:08:31.044Z,3.83
2017-07-17T16:10:59.222Z,6.75
2017-07-17T16:13:27.384Z,4.15
2017-07-17T16:15:55.543Z,2.42
2017-07-17T16:18:23.723Z,6.97
2017-07-17T16:20:51.886Z,4.35
2017-07-17T16:23:20.038Z,5.60
2017-07-17T16:25:48.981Z,5.12
2017-07-17T16:28:17.145Z,7.57
2017-07-17T16:30:45.321Z,5.18
2017-07-17T16:33:13.509Z,5.43
2017-07-17T16:35:41.666Z,5.50
2017-07-17T16:38:09.843Z,5.37
2017-07-17T16:40:38.024Z,5.45
2017-07-17T16:43:06.174Z,4.07
2017-07-17T16:45:34.331Z,7.62
2017-07-17T16:48:03.279Z,9.98
2017-07-17T16:50:31.485Z,4.40
2017-07-17T16:53:00.411Z,5.30
2017-07-17T16:55:28.581Z,3.78
2017-07-17T16:57:56.730Z,5.50
2017-07-17T17:00:25.679Z,2.58
2017-07-17T17:02:53.886Z,4.90
2017-07-17T17:05:22.058Z,4.15
2017-07-17T17:07:50.202Z,5.82
2017-07-17T17:10:18.392Z,3.78
2017-07-17T17:12:46.550Z,3.83
2017-07-17T17:15:14.732Z,6.28
2017-07-17T17:17:42.940Z,5.32
2017-07-17T17:20:11.100Z,6.60
2017-07-17T17:22:39.286Z,4.03
2017-07-17T17:25:07.489Z,8.57
2017-07-17T17:27:35.661Z,5.55
2017-07-17T17:30:03.859Z,6.87
2017-07-17T17:32:32.057Z,6.20
2017-07-17T17:35:00.211Z,15.07
2017-07-17T17:37:28.378Z,7.32
2017-07-17T17:39:57.005Z,7.18
2017-07-17T17:42:25.160Z,3.83
2017-07-17T17:44:53.330Z,6.60
2017-07-17T17:47:21.534Z,6.18
2017-07-17T17:49:49.684Z,6.68
2017-07-17T17:52:17.843Z,6.40
2017-07-17T17:54:46.053Z,6.80
2017-07-17T17:57:14.223Z,7.60
2017-07-17T17:59:42.393Z,6.82
2017-07-17T18:02:10.582Z,5.60
2017-07-17T18:04:38.746Z,9.63
2017-07-17T18:07:06.896Z,6.95
2017-07-17T18:09:35.075Z,3.20
2017-07-17T18:12:03.229Z,7.60
2017-07-17T18:14:31.400Z,5.97
2017-07-17T18:16:59.601Z,9.30
2017-07-17T18:19:27.750Z,3.67
2017-07-17T18:21:55.917Z,5.62
2017-07-17T18:24:24.130Z,6.75
2017-07-17T18:26:52.306Z,7.70
2017-07-17T18:29:20.452Z,3.05
2017-07-17T18:31:48.630Z,6.68
2017-07-17T18:34:16.814Z,6.00
2017-07-17T18:36:44.973Z,5.65
2017-07-17T18:39:13.185Z,4.47
2017-07-17T18:41:41.338Z,6.05
2017-07-17T18:44:09.487Z,3.97
2017-07-17T18:46:37.688Z,4.68
2017-07-17T18:49:05.858Z,11.75
2017-07-17T18:51:34.006Z,4.55
2017-07-17T18:54:02.943Z,6.10
2017-07-17T18:56:31.109Z,8.63
2017-07-17T18:58:59.268Z,4.93
2017-07-17T19:01:27.475Z,10.88
2017-07-17T19:03:55.660Z,9.98
2017-07-17T19:06:23.822Z,4.82
2017-07-17T19:08:52.007Z,8.20
2017-07-17T19:11:20.174Z,5.50
2017-07-17T19:13:48.345Z,4.93
2017-07-17T19:16:16.557Z,5.30
2017-07-17T19:18:45.474Z,10.43
2017-07-17T19:21:13.652Z,4.90
2017-07-17T19:23:41.850Z,6.55
2017-07-17T19:26:09.998Z,5.68
2017-07-17T19:28:38.166Z,4.93
2017-07-17T19:31:06.392Z,8.50
2017-07-17T19:33:34.545Z,11.73
2017-07-17T19:36:02.690Z,9.65
2017-07-17T19:38:30.876Z,11.57
2017-07-17T19:40:59.049Z,7.70
2017-07-17T19:43:27.217Z,8.15
2017-07-17T19:45:55.411Z,6.10
2017-07-17T19:48:23.584Z,10.95
2017-07-17T19:50:51.757Z,9.65
2017-07-17T19:53:19.958Z,6.97
2017-07-17T19:55:48.132Z,4.25
2017-07-17T19:58:16.309Z,7.53
2017-07-17T20:00:44.491Z,6.15
2017-07-17T20:03:12.646Z,6.25
2017-07-17T20:05:40.818Z,8.13
2017-07-17T20:08:09.018Z,4.45
2017-07-17T20:10:37.174Z,10.25
2017-07-17T20:13:05.349Z,10.77
2017-07-17T20:15:33.525Z,10.80
2017-07-17T20:18:01.676Z,8.35
2017-07-17T20:20:29.847Z,9.10
2017-07-17T20:22:58.044Z,10.18
2017-07-17T20:25:26.198Z,5.47
2017-07-17T20:27:54.428Z,6.30
2017-07-17T20:30:22.622Z,12.85
2017-07-17T20:32:51.538Z,8.15
2017-07-17T20:35:19.719Z,17.70
2017-07-17T20:37:47.926Z,15.88
2017-07-17T20:40:16.095Z,20.65
2017-07-17T20:42:44.254Z,18.00
2017-07-17T20:45:12.427Z,13.27
2017-07-17T20:47:40.579Z,12.13
2017-07-17T20:50:08.735Z,11.57
2017-07-17T20:52:36.928Z,15.30
2017-07-17T20:55:05.074Z,8.32
2017-07-17T20:57:34.012Z,9.45
2017-07-17T21:00:02.193Z,9.57
2017-07-17T21:02:30.362Z,12.93
2017-07-17T21:04:58.536Z,12.20
2017-07-17T21:07:26.707Z,8.23
2017-07-17T21:09:54.869Z,11.98
2017-07-17T21:12:23.025Z,7.53
2017-07-17T21:14:51.969Z,4.35
2017-07-17T21:17:20.130Z,7.85
2017-07-17T21:19:48.304Z,13.10
2017-07-17T21:22:16.500Z,7.47
2017-07-17T21:24:44.689Z,12.55
2017-07-17T21:27:12.843Z,10.65
2017-07-17T21:29:41.022Z,9.93
2017-07-17T21:32:09.193Z,9.07
2017-07-17T21:34:37.362Z,9.15
2017-07-17T21:37:05.555Z,9.57
2017-07-17T21:39:33.725Z,7.93
2017-07-17T21:42:01.901Z,7.93
2017-07-17T21:44:30.391Z,12.25
2017-07-17T21:46:58.557Z,7.07
2017-07-17T21:49:26.731Z,9.85
2017-07-17T21:51:54.902Z,8.63
2017-07-17T21:54:23.066Z,8.30
2017-07-17T21:56:51.249Z,12.00
2017-07-17T21:59:19.421Z,5.45
2017-07-17T22:01:47.585Z,5.60
2017-07-17T22:04:15.784Z,11.65
2017-07-17T22:06:43.990Z,6.70
2017-07-17T22:09:12.922Z,9.65
2017-07-17T22:11:41.084Z,11.50
2017-07-17T22:14:09.289Z,5.95
2017-07-17T22:16:37.618Z,10.73
2017-07-17T22:19:05.794Z,9.40
2017-07-17T22:21:33.992Z,11.12
2017-07-17T22:24:02.168Z,11.07
2017-07-17T22:26:30.349Z,8.25
2017-07-17T22:28:58.552Z,15.63
2017-07-17T22:31:26.725Z,10.55
2017-07-17T22:33:54.892Z,13.55
2017-07-17T22:36:23.088Z,6.35
2017-07-17T22:38:51.261Z,7.35
2017-07-17T22:41:19.436Z,12.68
2017-07-17T22:43:47.642Z,5.22
2017-07-17T22:46:15.813Z,11.23
2017-07-17T22:48:43.986Z,8.02
2017-07-17T22:51:12.945Z,12.07
2017-07-17T22:53:41.114Z,13.38
2017-07-17T22:56:09.291Z,8.40
2017-07-17T22:58:37.503Z,12.95
2017-07-17T23:01:06.448Z,8.77
2017-07-17T23:03:34.616Z,7.87
2017-07-17T23:06:02.810Z,9.20
2017-07-17T23:08:30.978Z,6.93
2017-07-17T23:10:59.148Z,10.45
2017-07-17T23:13:27.357Z,9.07
2017-07-17T23:15:56.297Z,8.60
2017-07-17T23:18:24.470Z,7.72
2017-07-17T23:20:52.661Z,7.25
2017-07-17T23:23:20.830Z,23.10
2017-07-17T23:25:49.000Z,8.40
2017-07-17T23:28:17.209Z,12.63
2017-07-17T23:30:45.372Z,6.12
2017-07-17T23:33:13.542Z,9.10
2017-07-17T23:35:41.749Z,8.07
2017-07-17T23:38:10.702Z,8.63
2017-07-17T23:40:38.900Z,11.20
2017-07-17T23:43:07.410Z,8.80
2017-07-17T23:45:36.361Z,6.87
2017-07-17T23:48:04.533Z,6.87
2017-07-17T23:50:32.731Z,6.57
2017-07-17T23:53:00.918Z,7.90
2017-07-17T23:55:29.863Z,11.43
2017-07-17T23:57:58.062Z,7.68
